sensor_id;sensor_type;location;lat;lon;timestamp;P1;durP1;ratioP1;P2;durP2;ratioP2
11211;SDS011;5663;50.864;12.096;2023-06-14T00:01:41;5.20;;;4.20;;
11211;SDS011;5663;50.864;12.096;2023-06-14T00:04:13;5.63;;;4.00;;
11211;SDS011;5663;50.864;12.096;2023-06-14T00:06:44;6.60;;;3.60;;
11211;SDS011;5663;50.864;12.096;2023-06-14T00:09:13;5.13;;;4.00;;
11211;SDS011;5663;50.864;12.096;2023-06-14T00:11:48;5.60;;;4.20;;
11211;SDS011;5663;50.864;12.096;2023-06-14T00:14:16;4.77;;;3.70;;
11211;SDS011;5663;50.864;12.096;2023-06-14T00:16:50;6.70;;;4.00;;
11211;SDS011;5663;50.864;12.096;2023-06-14T00:19:33;4.93;;;4.43;;
11211;SDS011;5663;50.864;12.096;2023-06-14T00:22:02;3.60;;;3.10;;
11211;SDS011;5663;50.864;12.096;2023-06-14T00:24:31;8.43;;;4.87;;
11211;SDS011;5663;50.864;12.096;2023-06-14T00:27:06;4.30;;;3.87;;
11211;SDS011;5663;50.864;12.096;2023-06-14T00:29:39;4.30;;;3.90;;
11211;SDS011;5663;50.864;12.096;2023-06-14T00:32:07;6.03;;;3.83;;
11211;SDS011;5663;50.864;12.096;2023-06-14T00:34:35;4.50;;;3.40;;
11211;SDS011;5663;50.864;12.096;2023-06-14T00:37:04;5.23;;;3.90;;
11211;SDS011;5663;50.864;12.096;2023-06-14T00:39:34;4.03;;;3.67;;
11211;SDS011;5663;50.864;12.096;2023-06-14T00:42:12;5.53;;;3.70;;
11211;SDS011;5663;50.864;12.096;2023-06-14T00:44:50;4.67;;;3.70;;
11211;SDS011;5663;50.864;12.096;2023-06-14T00:47:18;4.07;;;3.67;;
11211;SDS011;5663;50.864;12.096;2023-06-14T00:49:46;7.13;;;4.33;;
11211;SDS011;5663;50.864;12.096;2023-06-14T00:52:15;4.33;;;3.47;;
11211;SDS011;5663;50.864;12.096;2023-06-14T00:54:42;4.73;;;4.23;;
11211;SDS011;5663;50.864;12.096;2023-06-14T00:57:12;5.53;;;4.33;;
11211;SDS011;5663;50.864;12.096;2023-06-14T00:59:42;4.50;;;3.87;;
11211;SDS011;5663;50.864;12.096;2023-06-14T01:02:11;4.07;;;3.63;;
11211;SDS011;5663;50.864;12.096;2023-06-14T01:04:41;5.60;;;3.80;;
11211;SDS011;5663;50.864;12.096;2023-06-14T01:07:14;6.43;;;4.00;;
11211;SDS011;5663;50.864;12.096;2023-06-14T01:09:48;5.33;;;3.73;;
11211;SDS011;5663;50.864;12.096;2023-06-14T01:12:21;4.53;;;3.83;;
11211;SDS011;5663;50.864;12.096;2023-06-14T01:14:52;6.13;;;3.73;;
11211;SDS011;5663;50.864;12.096;2023-06-14T01:17:21;5.13;;;4.60;;
11211;SDS011;5663;50.864;12.096;2023-06-14T01:19:50;5.23;;;3.60;;
11211;SDS011;5663;50.864;12.096;2023-06-14T01:22:24;4.17;;;3.77;;
11211;SDS011;5663;50.864;12.096;2023-06-14T01:24:56;5.60;;;3.87;;
11211;SDS011;5663;50.864;12.096;2023-06-14T01:27:23;4.40;;;4.00;;
11211;SDS011;5663;50.864;12.096;2023-06-14T01:29:55;4.33;;;3.90;;
11211;SDS011;5663;50.864;12.096;2023-06-14T01:32:26;5.87;;;3.87;;
11211;SDS011;5663;50.864;12.096;2023-06-14T01:34:55;3.73;;;2.87;;
11211;SDS011;5663;50.864;12.096;2023-06-14T01:37:23;4.70;;;4.30;;
11211;SDS011;5663;50.864;12.096;2023-06-14T01:39:53;6.07;;;3.93;;
11211;SDS011;5663;50.864;12.096;2023-06-14T01:42:24;5.20;;;3.57;;
11211;SDS011;5663;50.864;12.096;2023-06-14T01:44:53;5.53;;;3.97;;
11211;SDS011;5663;50.864;12.096;2023-06-14T01:47:21;5.33;;;4.03;;
11211;SDS011;5663;50.864;12.096;2023-06-14T01:49:49;5.57;;;4.00;;
11211;SDS011;5663;50.864;12.096;2023-06-14T01:52:18;7.63;;;4.00;;
11211;SDS011;5663;50.864;12.096;2023-06-14T01:54:48;4.30;;;3.70;;
11211;SDS011;5663;50.864;12.096;2023-06-14T01:57:17;5.50;;;3.87;;
11211;SDS011;5663;50.864;12.096;2023-06-14T01:59:48;4.40;;;4.00;;
11211;SDS011;5663;50.864;12.096;2023-06-14T02:02:16;5.30;;;4.10;;
11211;SDS011;5663;50.864;12.096;2023-06-14T02:04:44;4.77;;;4.10;;
11211;SDS011;5663;50.864;12.096;2023-06-14T02:07:13;4.33;;;3.93;;
11211;SDS011;5663;50.864;12.096;2023-06-14T02:09:40;6.30;;;3.80;;
11211;SDS011;5663;50.864;12.096;2023-06-14T02:12:08;5.80;;;3.87;;
11211;SDS011;5663;50.864;12.096;2023-06-14T02:14:36;4.47;;;4.07;;
11211;SDS011;5663;50.864;12.096;2023-06-14T02:17:06;4.37;;;3.70;;
11211;SDS011;5663;50.864;12.096;2023-06-14T02:19:34;6.07;;;4.03;;
11211;SDS011;5663;50.864;12.096;2023-06-14T02:22:02;6.27;;;4.27;;
11211;SDS011;5663;50.864;12.096;2023-06-14T02:24:31;5.70;;;3.80;;
11211;SDS011;5663;50.864;12.096;2023-06-14T02:26:59;5.33;;;4.27;;
11211;SDS011;5663;50.864;12.096;2023-06-14T02:29:27;5.53;;;3.87;;
11211;SDS011;5663;50.864;12.096;2023-06-14T02:31:55;4.80;;;4.00;;
11211;SDS011;5663;50.864;12.096;2023-06-14T02:34:25;6.37;;;4.60;;
11211;SDS011;5663;50.864;12.096;2023-06-14T02:36:53;5.80;;;4.10;;
11211;SDS011;5663;50.864;12.096;2023-06-14T02:39:21;6.07;;;4.27;;
11211;SDS011;5663;50.864;12.096;2023-06-14T02:41:49;7.33;;;3.33;;
11211;SDS011;5663;50.864;12.096;2023-06-14T02:44:17;6.53;;;3.67;;
11211;SDS011;5663;50.864;12.096;2023-06-14T02:46:45;4.17;;;3.77;;
11211;SDS011;5663;50.864;12.096;2023-06-14T02:49:13;6.00;;;4.50;;
11211;SDS011;5663;50.864;12.096;2023-06-14T02:51:44;5.30;;;4.40;;
11211;SDS011;5663;50.864;12.096;2023-06-14T02:54:13;5.03;;;4.27;;
11211;SDS011;5663;50.864;12.096;2023-06-14T02:56:41;6.70;;;4.00;;
11211;SDS011;5663;50.864;12.096;2023-06-14T02:59:09;4.90;;;4.10;;
11211;SDS011;5663;50.864;12.096;2023-06-14T03:01:37;4.83;;;4.23;;
11211;SDS011;5663;50.864;12.096;2023-06-14T03:04:08;7.77;;;4.60;;
11211;SDS011;5663;50.864;12.096;2023-06-14T03:06:35;6.40;;;4.30;;
11211;SDS011;5663;50.864;12.096;2023-06-14T03:09:06;5.93;;;3.93;;
11211;SDS011;5663;50.864;12.096;2023-06-14T03:11:41;5.73;;;4.10;;
11211;SDS011;5663;50.864;12.096;2023-06-14T03:14:10;5.90;;;4.07;;
11211;SDS011;5663;50.864;12.096;2023-06-14T03:16:39;5.13;;;4.60;;
11211;SDS011;5663;50.864;12.096;2023-06-14T03:19:07;5.40;;;4.10;;
11211;SDS011;5663;50.864;12.096;2023-06-14T03:21:36;4.50;;;4.10;;
11211;SDS011;5663;50.864;12.096;2023-06-14T03:24:07;6.93;;;4.10;;
11211;SDS011;5663;50.864;12.096;2023-06-14T03:26:38;5.23;;;4.17;;
11211;SDS011;5663;50.864;12.096;2023-06-14T03:29:05;6.30;;;4.83;;
11211;SDS011;5663;50.864;12.096;2023-06-14T03:31:33;5.47;;;3.87;;
11211;SDS011;5663;50.864;12.096;2023-06-14T03:34:01;6.23;;;4.27;;
11211;SDS011;5663;50.864;12.096;2023-06-14T03:36:28;6.23;;;4.00;;
11211;SDS011;5663;50.864;12.096;2023-06-14T03:38:56;6.70;;;4.10;;
11211;SDS011;5663;50.864;12.096;2023-06-14T03:41:26;4.60;;;4.20;;
11211;SDS011;5663;50.864;12.096;2023-06-14T03:43:56;5.97;;;4.07;;
11211;SDS011;5663;50.864;12.096;2023-06-14T03:46:23;4.20;;;3.80;;
11211;SDS011;5663;50.864;12.096;2023-06-14T03:48:51;6.50;;;4.20;;
11211;SDS011;5663;50.864;12.096;2023-06-14T03:51:19;5.00;;;3.93;;
11211;SDS011;5663;50.864;12.096;2023-06-14T03:53:49;5.03;;;3.87;;
11211;SDS011;5663;50.864;12.096;2023-06-14T03:56:19;4.83;;;4.37;;
11211;SDS011;5663;50.864;12.096;2023-06-14T03:58:49;4.97;;;4.47;;
11211;SDS011;5663;50.864;12.096;2023-06-14T04:01:17;7.10;;;4.00;;
11211;SDS011;5663;50.864;12.096;2023-06-14T04:03:44;5.17;;;4.40;;
11211;SDS011;5663;50.864;12.096;2023-06-14T04:06:13;9.10;;;4.97;;
11211;SDS011;5663;50.864;12.096;2023-06-14T04:08:45;8.57;;;4.20;;
11211;SDS011;5663;50.864;12.096;2023-06-14T04:11:15;10.63;;;4.00;;
11211;SDS011;5663;50.864;12.096;2023-06-14T04:13:49;4.60;;;4.07;;
11211;SDS011;5663;50.864;12.096;2023-06-14T04:16:18;5.27;;;4.30;;
11211;SDS011;5663;50.864;12.096;2023-06-14T04:18:51;5.23;;;3.80;;
11211;SDS011;5663;50.864;12.096;2023-06-14T04:21:24;7.20;;;3.70;;
11211;SDS011;5663;50.864;12.096;2023-06-14T04:23:54;4.27;;;3.60;;
11211;SDS011;5663;50.864;12.096;2023-06-14T04:26:25;5.33;;;3.93;;
11211;SDS011;5663;50.864;12.096;2023-06-14T04:28:57;9.33;;;4.70;;
11211;SDS011;5663;50.864;12.096;2023-06-14T04:31:29;4.47;;;3.57;;
11211;SDS011;5663;50.864;12.096;2023-06-14T04:34:00;8.80;;;4.10;;
11211;SDS011;5663;50.864;12.096;2023-06-14T04:36:37;4.47;;;3.93;;
11211;SDS011;5663;50.864;12.096;2023-06-14T04:39:09;3.97;;;3.60;;
11211;SDS011;5663;50.864;12.096;2023-06-14T04:41:37;6.93;;;4.27;;
11211;SDS011;5663;50.864;12.096;2023-06-14T04:44:06;6.63;;;4.07;;
11211;SDS011;5663;50.864;12.096;2023-06-14T04:46:44;4.67;;;3.90;;
11211;SDS011;5663;50.864;12.096;2023-06-14T04:49:14;5.83;;;3.97;;
11211;SDS011;5663;50.864;12.096;2023-06-14T04:51:41;5.07;;;4.03;;
11211;SDS011;5663;50.864;12.096;2023-06-14T04:54:09;4.17;;;3.73;;
11211;SDS011;5663;50.864;12.096;2023-06-14T04:56:41;5.73;;;3.80;;
11211;SDS011;5663;50.864;12.096;2023-06-14T04:59:19;10.43;;;3.90;;
11211;SDS011;5663;50.864;12.096;2023-06-14T05:01:49;6.77;;;3.87;;
11211;SDS011;5663;50.864;12.096;2023-06-14T05:04:17;4.73;;;4.10;;
11211;SDS011;5663;50.864;12.096;2023-06-14T05:07:17;4.20;;;3.80;;
11211;SDS011;5663;50.864;12.096;2023-06-14T05:10:01;6.47;;;4.10;;
11211;SDS011;5663;50.864;12.096;2023-06-14T05:12:39;4.20;;;3.80;;
11211;SDS011;5663;50.864;12.096;2023-06-14T05:15:13;4.33;;;3.93;;
11211;SDS011;5663;50.864;12.096;2023-06-14T05:18:01;9.13;;;4.37;;
11211;SDS011;5663;50.864;12.096;2023-06-14T05:20:30;5.93;;;3.30;;
11211;SDS011;5663;50.864;12.096;2023-06-14T05:23:03;5.53;;;3.27;;
11211;SDS011;5663;50.864;12.096;2023-06-14T05:25:35;7.93;;;3.70;;
11211;SDS011;5663;50.864;12.096;2023-06-14T05:28:04;4.60;;;3.53;;
11211;SDS011;5663;50.864;12.096;2023-06-14T05:30:43;5.70;;;3.77;;
11211;SDS011;5663;50.864;12.096;2023-06-14T05:33:11;4.33;;;3.07;;
11211;SDS011;5663;50.864;12.096;2023-06-14T05:35:40;4.17;;;3.50;;
11211;SDS011;5663;50.864;12.096;2023-06-14T05:38:09;9.70;;;3.47;;
11211;SDS011;5663;50.864;12.096;2023-06-14T05:40:40;6.17;;;3.57;;
11211;SDS011;5663;50.864;12.096;2023-06-14T05:43:08;5.83;;;3.50;;
11211;SDS011;5663;50.864;12.096;2023-06-14T05:45:51;5.10;;;3.57;;
11211;SDS011;5663;50.864;12.096;2023-06-14T05:48:25;4.20;;;3.50;;
11211;SDS011;5663;50.864;12.096;2023-06-14T05:50:55;6.10;;;3.80;;
11211;SDS011;5663;50.864;12.096;2023-06-14T05:53:24;4.40;;;3.60;;
11211;SDS011;5663;50.864;12.096;2023-06-14T05:56:17;5.47;;;4.00;;
11211;SDS011;5663;50.864;12.096;2023-06-14T05:58:42;8.03;;;3.60;;
11211;SDS011;5663;50.864;12.096;2023-06-14T06:01:14;3.73;;;3.40;;
11211;SDS011;5663;50.864;12.096;2023-06-14T06:04:10;5.53;;;3.80;;
11211;SDS011;5663;50.864;12.096;2023-06-14T06:09:11;4.70;;;3.73;;
11211;SDS011;5663;50.864;12.096;2023-06-14T06:12:16;4.70;;;3.90;;
11211;SDS011;5663;50.864;12.096;2023-06-14T06:21:01;4.87;;;4.20;;
11211;SDS011;5663;50.864;12.096;2023-06-14T06:27:01;4.13;;;3.60;;
11211;SDS011;5663;50.864;12.096;2023-06-14T06:29:41;5.13;;;3.77;;
11211;SDS011;5663;50.864;12.096;2023-06-14T06:32:41;4.63;;;3.77;;
11211;SDS011;5663;50.864;12.096;2023-06-14T06:35:16;6.90;;;3.93;;
11211;SDS011;5663;50.864;12.096;2023-06-14T06:37:55;4.10;;;3.57;;
11211;SDS011;5663;50.864;12.096;2023-06-14T06:40:57;6.90;;;3.90;;
11211;SDS011;5663;50.864;12.096;2023-06-14T06:43:25;4.53;;;4.03;;
11211;SDS011;5663;50.864;12.096;2023-06-14T06:49:05;5.70;;;4.35;;
11211;SDS011;5663;50.864;12.096;2023-06-14T07:15:06;19.13;;;5.10;;
11211;SDS011;5663;50.864;12.096;2023-06-14T07:18:06;7.60;;;4.87;;
11211;SDS011;5663;50.864;12.096;2023-06-14T07:20:49;9.03;;;5.17;;
11211;SDS011;5663;50.864;12.096;2023-06-14T07:29:45;5.10;;;4.60;;
11211;SDS011;5663;50.864;12.096;2023-06-14T07:38:52;6.27;;;4.90;;
11211;SDS011;5663;50.864;12.096;2023-06-14T07:44:40;4.10;;;3.73;;
11211;SDS011;5663;50.864;12.096;2023-06-14T07:47:11;4.30;;;3.90;;
11211;SDS011;5663;50.864;12.096;2023-06-14T07:49:49;5.83;;;4.40;;
11211;SDS011;5663;50.864;12.096;2023-06-14T07:52:24;7.03;;;4.30;;
11211;SDS011;5663;50.864;12.096;2023-06-14T07:55:27;4.43;;;4.00;;
11211;SDS011;5663;50.864;12.096;2023-06-14T07:58:11;5.80;;;4.60;;
11211;SDS011;5663;50.864;12.096;2023-06-14T08:01:11;4.57;;;4.17;;
11211;SDS011;5663;50.864;12.096;2023-06-14T08:04:21;5.40;;;4.43;;
11211;SDS011;5663;50.864;12.096;2023-06-14T08:13:34;5.53;;;4.60;;
11211;SDS011;5663;50.864;12.096;2023-06-14T08:17:37;6.83;;;4.10;;
11211;SDS011;5663;50.864;12.096;2023-06-14T08:24:59;8.73;;;4.77;;
11211;SDS011;5663;50.864;12.096;2023-06-14T08:28:02;4.20;;;3.73;;
11211;SDS011;5663;50.864;12.096;2023-06-14T08:40:23;6.77;;;4.27;;
11211;SDS011;5663;50.864;12.096;2023-06-14T08:43:00;5.07;;;4.33;;
11211;SDS011;5663;50.864;12.096;2023-06-14T08:45:37;5.00;;;4.27;;
11211;SDS011;5663;50.864;12.096;2023-06-14T08:48:09;6.87;;;4.23;;
11211;SDS011;5663;50.864;12.096;2023-06-14T08:50:54;6.93;;;4.20;;
11211;SDS011;5663;50.864;12.096;2023-06-14T08:53:39;4.20;;;3.80;;
11211;SDS011;5663;50.864;12.096;2023-06-14T08:56:21;5.00;;;4.40;;
11211;SDS011;5663;50.864;12.096;2023-06-14T08:59:31;8.03;;;4.50;;
11211;SDS011;5663;50.864;12.096;2023-06-14T09:02:43;3.90;;;3.50;;
11211;SDS011;5663;50.864;12.096;2023-06-14T09:05:12;4.00;;;3.60;;
11211;SDS011;5663;50.864;12.096;2023-06-14T09:10:02;3.80;;;3.50;;
11211;SDS011;5663;50.864;12.096;2023-06-14T09:21:25;5.75;;;3.83;;
11211;SDS011;5663;50.864;12.096;2023-06-14T09:27:13;7.53;;;3.60;;
11211;SDS011;5663;50.864;12.096;2023-06-14T09:29:47;5.63;;;3.42;;
11211;SDS011;5663;50.864;12.096;2023-06-14T09:32:21;3.60;;;3.30;;
11211;SDS011;5663;50.864;12.096;2023-06-14T09:38:30;4.57;;;3.28;;
11211;SDS011;5663;50.864;12.096;2023-06-14T09:41:01;4.43;;;3.30;;
11211;SDS011;5663;50.864;12.096;2023-06-14T09:43:43;5.10;;;3.50;;
11211;SDS011;5663;50.864;12.096;2023-06-14T09:46:20;8.07;;;3.83;;
11211;SDS011;5663;50.864;12.096;2023-06-14T09:48:51;5.38;;;3.55;;
11211;SDS011;5663;50.864;12.096;2023-06-14T09:51:21;5.60;;;3.47;;
11211;SDS011;5663;50.864;12.096;2023-06-14T09:53:52;4.63;;;3.38;;
11211;SDS011;5663;50.864;12.096;2023-06-14T09:56:22;4.50;;;3.72;;
11211;SDS011;5663;50.864;12.096;2023-06-14T10:02:24;4.28;;;3.35;;
11211;SDS011;5663;50.864;12.096;2023-06-14T10:08:09;4.18;;;3.42;;
11211;SDS011;5663;50.864;12.096;2023-06-14T10:10:57;5.70;;;3.25;;
11211;SDS011;5663;50.864;12.096;2023-06-14T10:13:25;3.85;;;3.10;;
11211;SDS011;5663;50.864;12.096;2023-06-14T10:15:58;11.05;;;4.65;;
11211;SDS011;5663;50.864;12.096;2023-06-14T10:18:33;6.05;;;3.40;;
11211;SDS011;5663;50.864;12.096;2023-06-14T10:24:32;7.68;;;3.40;;
11211;SDS011;5663;50.864;12.096;2023-06-14T10:33:58;5.43;;;3.25;;
11211;SDS011;5663;50.864;12.096;2023-06-14T10:36:32;3.85;;;3.50;;
11211;SDS011;5663;50.864;12.096;2023-06-14T10:39:15;3.80;;;3.40;;
11211;SDS011;5663;50.864;12.096;2023-06-14T10:41:53;4.13;;;3.72;;
11211;SDS011;5663;50.864;12.096;2023-06-14T10:44:47;5.30;;;3.53;;
11211;SDS011;5663;50.864;12.096;2023-06-14T10:47:20;6.10;;;3.10;;
11211;SDS011;5663;50.864;12.096;2023-06-14T10:49:50;4.25;;;3.22;;
11211;SDS011;5663;50.864;12.096;2023-06-14T10:52:32;4.90;;;3.13;;
11211;SDS011;5663;50.864;12.096;2023-06-14T10:55:09;4.13;;;3.10;;
11211;SDS011;5663;50.864;12.096;2023-06-14T10:57:44;6.50;;;3.60;;
11211;SDS011;5663;50.864;12.096;2023-06-14T11:00:20;4.53;;;3.53;;
11211;SDS011;5663;50.864;12.096;2023-06-14T11:03:13;4.00;;;3.60;;
11211;SDS011;5663;50.864;12.096;2023-06-14T11:05:57;3.95;;;3.38;;
11211;SDS011;5663;50.864;12.096;2023-06-14T11:08:47;3.65;;;3.35;;
11211;SDS011;5663;50.864;12.096;2023-06-14T11:11:24;10.27;;;3.47;;
11211;SDS011;5663;50.864;12.096;2023-06-14T11:13:58;7.15;;;3.70;;
11211;SDS011;5663;50.864;12.096;2023-06-14T11:16:43;3.67;;;3.00;;
11211;SDS011;5663;50.864;12.096;2023-06-14T11:19:33;3.35;;;3.00;;
11211;SDS011;5663;50.864;12.096;2023-06-14T11:22:39;5.50;;;3.25;;
11211;SDS011;5663;50.864;12.096;2023-06-14T11:25:17;3.45;;;3.00;;
11211;SDS011;5663;50.864;12.096;2023-06-14T11:28:20;3.38;;;3.08;;
11211;SDS011;5663;50.864;12.096;2023-06-14T11:31:06;3.75;;;2.75;;
11211;SDS011;5663;50.864;12.096;2023-06-14T11:33:52;3.75;;;3.42;;
11211;SDS011;5663;50.864;12.096;2023-06-14T11:36:39;5.97;;;3.47;;
11211;SDS011;5663;50.864;12.096;2023-06-14T11:39:32;3.67;;;3.38;;
11211;SDS011;5663;50.864;12.096;2023-06-14T11:42:03;3.67;;;3.20;;
11211;SDS011;5663;50.864;12.096;2023-06-14T11:44:35;15.77;;;4.20;;
11211;SDS011;5663;50.864;12.096;2023-06-14T11:47:06;5.25;;;3.30;;
11211;SDS011;5663;50.864;12.096;2023-06-14T11:49:47;3.53;;;3.22;;
11211;SDS011;5663;50.864;12.096;2023-06-14T11:52:17;3.88;;;3.50;;
11211;SDS011;5663;50.864;12.096;2023-06-14T11:54:52;4.00;;;3.03;;
11211;SDS011;5663;50.864;12.096;2023-06-14T11:57:40;4.10;;;3.35;;
11211;SDS011;5663;50.864;12.096;2023-06-14T12:00:25;3.55;;;3.25;;
11211;SDS011;5663;50.864;12.096;2023-06-14T12:02:54;4.05;;;3.25;;
11211;SDS011;5663;50.864;12.096;2023-06-14T12:05:32;3.78;;;3.40;;
11211;SDS011;5663;50.864;12.096;2023-06-14T12:08:42;3.63;;;3.20;;
11211;SDS011;5663;50.864;12.096;2023-06-14T12:11:21;4.97;;;3.28;;
11211;SDS011;5663;50.864;12.096;2023-06-14T12:13:56;3.55;;;3.22;;
11211;SDS011;5663;50.864;12.096;2023-06-14T12:16:30;3.40;;;3.10;;
11211;SDS011;5663;50.864;12.096;2023-06-14T12:19:07;3.50;;;3.20;;
11211;SDS011;5663;50.864;12.096;2023-06-14T12:21:38;4.25;;;3.03;;
11211;SDS011;5663;50.864;12.096;2023-06-14T12:24:14;3.65;;;3.30;;
11211;SDS011;5663;50.864;12.096;2023-06-14T12:26:45;9.25;;;3.05;;
11211;SDS011;5663;50.864;12.096;2023-06-14T12:29:19;4.10;;;3.03;;
11211;SDS011;5663;50.864;12.096;2023-06-14T12:31:50;3.45;;;2.67;;
11211;SDS011;5663;50.864;12.096;2023-06-14T12:34:22;3.47;;;2.90;;
11211;SDS011;5663;50.864;12.096;2023-06-14T12:39:39;3.60;;;2.60;;
11211;SDS011;5663;50.864;12.096;2023-06-14T12:42:15;3.00;;;2.80;;
11211;SDS011;5663;50.864;12.096;2023-06-14T12:44:43;6.25;;;2.50;;
11211;SDS011;5663;50.864;12.096;2023-06-14T12:47:21;2.92;;;2.70;;
11211;SDS011;5663;50.864;12.096;2023-06-14T12:49:49;3.92;;;2.80;;
11211;SDS011;5663;50.864;12.096;2023-06-14T12:52:17;2.70;;;2.50;;
11211;SDS011;5663;50.864;12.096;2023-06-14T12:55:03;2.83;;;2.50;;
11211;SDS011;5663;50.864;12.096;2023-06-14T12:57:36;3.15;;;2.40;;
11211;SDS011;5663;50.864;12.096;2023-06-14T13:00:13;3.17;;;2.70;;
11211;SDS011;5663;50.864;12.096;2023-06-14T13:02:51;2.95;;;2.60;;
11211;SDS011;5663;50.864;12.096;2023-06-14T13:05:20;7.30;;;2.53;;
11211;SDS011;5663;50.864;12.096;2023-06-14T13:08:16;2.72;;;2.53;;
11211;SDS011;5663;50.864;12.096;2023-06-14T13:11:06;37.38;;;6.45;;
11211;SDS011;5663;50.864;12.096;2023-06-14T13:13:53;2.65;;;2.45;;
11211;SDS011;5663;50.864;12.096;2023-06-14T13:16:36;9.15;;;3.08;;
11211;SDS011;5663;50.864;12.096;2023-06-14T13:19:09;6.60;;;2.45;;
11211;SDS011;5663;50.864;12.096;2023-06-14T13:21:56;3.10;;;2.80;;
11211;SDS011;5663;50.864;12.096;2023-06-14T13:24:24;2.53;;;2.33;;
11211;SDS011;5663;50.864;12.096;2023-06-14T13:27:10;3.28;;;2.42;;
11211;SDS011;5663;50.864;12.096;2023-06-14T13:29:39;2.60;;;2.40;;
11211;SDS011;5663;50.864;12.096;2023-06-14T13:32:13;4.40;;;2.50;;
11211;SDS011;5663;50.864;12.096;2023-06-14T13:34:41;5.88;;;2.70;;
11211;SDS011;5663;50.864;12.096;2023-06-14T13:37:29;4.20;;;2.33;;
11211;SDS011;5663;50.864;12.096;2023-06-14T13:39:57;2.78;;;2.30;;
11211;SDS011;5663;50.864;12.096;2023-06-14T13:42:28;4.22;;;2.40;;
11211;SDS011;5663;50.864;12.096;2023-06-14T13:45:01;2.90;;;2.30;;
11211;SDS011;5663;50.864;12.096;2023-06-14T13:47:48;4.38;;;2.28;;
11211;SDS011;5663;50.864;12.096;2023-06-14T13:50:26;2.55;;;2.30;;
11211;SDS011;5663;50.864;12.096;2023-06-14T13:52:54;8.50;;;2.70;;
11211;SDS011;5663;50.864;12.096;2023-06-14T13:55:23;4.68;;;2.20;;
11211;SDS011;5663;50.864;12.096;2023-06-14T13:57:55;4.88;;;2.40;;
11211;SDS011;5663;50.864;12.096;2023-06-14T14:00:32;2.70;;;2.50;;
11211;SDS011;5663;50.864;12.096;2023-06-14T14:03:11;3.08;;;2.20;;
11211;SDS011;5663;50.864;12.096;2023-06-14T14:05:45;3.47;;;2.40;;
11211;SDS011;5663;50.864;12.096;2023-06-14T14:08:15;2.47;;;2.28;;
11211;SDS011;5663;50.864;12.096;2023-06-14T14:10:57;3.88;;;2.38;;
11211;SDS011;5663;50.864;12.096;2023-06-14T14:13:37;2.50;;;2.30;;
11211;SDS011;5663;50.864;12.096;2023-06-14T14:16:09;3.85;;;2.25;;
11211;SDS011;5663;50.864;12.096;2023-06-14T14:18:36;2.42;;;2.22;;
11211;SDS011;5663;50.864;12.096;2023-06-14T14:21:09;2.75;;;2.55;;
11211;SDS011;5663;50.864;12.096;2023-06-14T14:23:55;2.47;;;2.13;;
11211;SDS011;5663;50.864;12.096;2023-06-14T14:26:25;2.20;;;2.00;;
11211;SDS011;5663;50.864;12.096;2023-06-14T14:28:55;2.60;;;2.40;;
11211;SDS011;5663;50.864;12.096;2023-06-14T14:31:30;2.92;;;2.53;;
11211;SDS011;5663;50.864;12.096;2023-06-14T14:34:13;3.90;;;2.47;;
11211;SDS011;5663;50.864;12.096;2023-06-14T14:36:42;2.60;;;2.40;;
11211;SDS011;5663;50.864;12.096;2023-06-14T14:39:13;2.38;;;2.17;;
11211;SDS011;5663;50.864;12.096;2023-06-14T14:42:14;2.47;;;2.22;;
11211;SDS011;5663;50.864;12.096;2023-06-14T14:45:02;2.92;;;2.08;;
11211;SDS011;5663;50.864;12.096;2023-06-14T14:47:41;2.13;;;2.00;;
11211;SDS011;5663;50.864;12.096;2023-06-14T14:50:13;2.90;;;2.47;;
11211;SDS011;5663;50.864;12.096;2023-06-14T14:52:49;4.30;;;2.75;;
11211;SDS011;5663;50.864;12.096;2023-06-14T14:55:33;3.92;;;2.40;;
11211;SDS011;5663;50.864;12.096;2023-06-14T14:58:16;4.38;;;2.75;;
11211;SDS011;5663;50.864;12.096;2023-06-14T15:00:49;2.70;;;2.50;;
11211;SDS011;5663;50.864;12.096;2023-06-14T15:03:17;3.00;;;2.80;;
11211;SDS011;5663;50.864;12.096;2023-06-14T15:05:45;10.55;;;3.20;;
11211;SDS011;5663;50.864;12.096;2023-06-14T15:08:13;2.88;;;2.63;;
11211;SDS011;5663;50.864;12.096;2023-06-14T15:10:47;13.13;;;3.00;;
11211;SDS011;5663;50.864;12.096;2023-06-14T15:13:16;3.08;;;2.55;;
11211;SDS011;5663;50.864;12.096;2023-06-14T15:15:52;3.00;;;2.60;;
11211;SDS011;5663;50.864;12.096;2023-06-14T15:18:38;4.72;;;2.83;;
11211;SDS011;5663;50.864;12.096;2023-06-14T15:21:07;6.15;;;2.80;;
11211;SDS011;5663;50.864;12.096;2023-06-14T15:23:52;2.58;;;2.38;;
11211;SDS011;5663;50.864;12.096;2023-06-14T15:26:20;2.50;;;2.30;;
11211;SDS011;5663;50.864;12.096;2023-06-14T15:28:53;2.80;;;2.60;;
11211;SDS011;5663;50.864;12.096;2023-06-14T15:31:49;2.70;;;2.50;;
11211;SDS011;5663;50.864;12.096;2023-06-14T15:34:20;2.80;;;2.60;;
11211;SDS011;5663;50.864;12.096;2023-06-14T15:36:48;7.50;;;3.05;;
11211;SDS011;5663;50.864;12.096;2023-06-14T15:39:19;3.35;;;2.90;;
11211;SDS011;5663;50.864;12.096;2023-06-14T15:41:47;5.80;;;2.80;;
11211;SDS011;5663;50.864;12.096;2023-06-14T15:44:16;2.80;;;2.60;;
11211;SDS011;5663;50.864;12.096;2023-06-14T15:46:45;11.10;;;3.28;;
11211;SDS011;5663;50.864;12.096;2023-06-14T15:49:13;5.25;;;3.10;;
11211;SDS011;5663;50.864;12.096;2023-06-14T15:51:46;3.90;;;2.97;;
11211;SDS011;5663;50.864;12.096;2023-06-14T15:54:17;4.35;;;3.47;;
11211;SDS011;5663;50.864;12.096;2023-06-14T15:56:46;4.13;;;3.22;;
11211;SDS011;5663;50.864;12.096;2023-06-14T15:59:25;6.40;;;3.70;;
11211;SDS011;5663;50.864;12.096;2023-06-14T16:01:55;3.35;;;3.05;;
11211;SDS011;5663;50.864;12.096;2023-06-14T16:04:22;3.40;;;3.10;;
11211;SDS011;5663;50.864;12.096;2023-06-14T16:06:50;6.30;;;3.17;;
11211;SDS011;5663;50.864;12.096;2023-06-14T16:09:20;5.82;;;3.20;;
11211;SDS011;5663;50.864;12.096;2023-06-14T16:12:01;3.45;;;2.97;;
11211;SDS011;5663;50.864;12.096;2023-06-14T16:14:33;4.60;;;3.20;;
11211;SDS011;5663;50.864;12.096;2023-06-14T16:17:11;7.30;;;3.50;;
11211;SDS011;5663;50.864;12.096;2023-06-14T16:19:43;4.18;;;3.45;;
11211;SDS011;5663;50.864;12.096;2023-06-14T16:22:13;4.82;;;3.50;;
11211;SDS011;5663;50.864;12.096;2023-06-14T16:24:44;3.35;;;3.03;;
11211;SDS011;5663;50.864;12.096;2023-06-14T16:27:18;6.68;;;3.25;;
11211;SDS011;5663;50.864;12.096;2023-06-14T16:29:50;4.15;;;2.88;;
11211;SDS011;5663;50.864;12.096;2023-06-14T16:32:21;8.45;;;3.63;;
11211;SDS011;5663;50.864;12.096;2023-06-14T16:34:50;3.33;;;3.03;;
11211;SDS011;5663;50.864;12.096;2023-06-14T16:37:24;4.90;;;3.40;;
11211;SDS011;5663;50.864;12.096;2023-06-14T16:40:04;2.97;;;2.70;;
11211;SDS011;5663;50.864;12.096;2023-06-14T16:42:35;3.70;;;3.13;;
11211;SDS011;5663;50.864;12.096;2023-06-14T16:45:13;2.70;;;2.50;;
11211;SDS011;5663;50.864;12.096;2023-06-14T16:47:48;3.40;;;2.60;;
11211;SDS011;5663;50.864;12.096;2023-06-14T16:50:17;2.80;;;2.60;;
11211;SDS011;5663;50.864;12.096;2023-06-14T16:52:45;3.10;;;2.80;;
11211;SDS011;5663;50.864;12.096;2023-06-14T16:55:22;3.30;;;3.00;;
11211;SDS011;5663;50.864;12.096;2023-06-14T16:57:50;3.10;;;2.80;;
11211;SDS011;5663;50.864;12.096;2023-06-14T17:00:18;2.67;;;2.47;;
11211;SDS011;5663;50.864;12.096;2023-06-14T17:02:46;3.17;;;2.83;;
11211;SDS011;5663;50.864;12.096;2023-06-14T17:05:14;2.70;;;2.50;;
11211;SDS011;5663;50.864;12.096;2023-06-14T17:07:43;4.68;;;2.70;;
11211;SDS011;5663;50.864;12.096;2023-06-14T17:10:21;2.90;;;2.63;;
11211;SDS011;5663;50.864;12.096;2023-06-14T17:12:50;3.67;;;2.78;;
11211;SDS011;5663;50.864;12.096;2023-06-14T17:15:32;3.30;;;2.90;;
11211;SDS011;5663;50.864;12.096;2023-06-14T17:17:59;3.00;;;2.70;;
11211;SDS011;5663;50.864;12.096;2023-06-14T17:20:29;3.38;;;2.67;;
11211;SDS011;5663;50.864;12.096;2023-06-14T17:22:57;3.45;;;2.70;;
11211;SDS011;5663;50.864;12.096;2023-06-14T17:25:26;3.53;;;2.53;;
11211;SDS011;5663;50.864;12.096;2023-06-14T17:27:55;3.50;;;2.80;;